createdAt,value
2019-03-28T00:01:19.858Z,22.60
2019-03-28T00:06:16.585Z,21.10
2019-03-28T00:08:45.088Z,22.50
2019-03-28T00:13:41.886Z,22.70
2019-03-28T00:16:10.454Z,23.60
2019-03-28T00:21:07.257Z,22.20
2019-03-28T00:23:54.040Z,22.90
2019-03-28T00:26:30.023Z,22.80
2019-03-28T00:28:52.722Z,23.30
2019-03-28T00:33:49.631Z,23.90
2019-03-28T00:36:19.831Z,22.80
2019-03-28T00:38:50.130Z,22.50
2019-03-28T00:41:18.662Z,23.30
2019-03-28T00:51:11.735Z,21.60
2019-03-28T00:53:40.276Z,21.30
2019-03-28T01:01:05.307Z,23.50
2019-03-28T01:08:30.327Z,21.90
2019-03-28T01:10:58.816Z,22.90
2019-03-28T01:13:27.307Z,23.40
2019-03-28T01:20:55.038Z,23.70
2019-03-28T01:25:51.757Z,23.80
2019-03-28T01:28:20.255Z,23.30
2019-03-28T01:30:48.792Z,22.70
2019-03-28T01:35:45.538Z,23.20
2019-03-28T01:40:42.226Z,23.30
2019-03-28T01:48:07.164Z,23.50
2019-03-28T01:50:35.656Z,22.80
2019-03-28T01:58:00.638Z,23.10
2019-03-28T02:02:57.362Z,23.30
2019-03-28T02:12:50.585Z,24.00
2019-03-28T02:22:43.774Z,23.50
2019-03-28T02:25:12.258Z,23.40
2019-03-28T02:30:08.998Z,22.80
2019-03-28T02:32:37.425Z,23.00
2019-03-28T02:35:06.068Z,22.40
2019-03-28T02:40:02.935Z,22.00
2019-03-28T02:42:31.340Z,22.10
2019-03-28T02:49:56.145Z,23.00
2019-03-28T03:02:17.792Z,23.40
2019-03-28T03:04:46.202Z,22.80
2019-03-28T03:12:11.204Z,22.20
2019-03-28T03:14:39.756Z,22.50
2019-03-28T03:22:04.651Z,22.90
2019-03-28T03:24:33.150Z,23.00
2019-03-28T03:31:58.218Z,22.00
2019-03-28T03:34:26.622Z,22.30
2019-03-28T03:41:51.577Z,22.60
2019-03-28T03:46:48.460Z,23.00
2019-03-28T03:56:43.456Z,22.20
2019-03-28T03:59:12.134Z,22.30
2019-03-28T04:04:09.028Z,22.70
2019-03-28T04:06:37.743Z,22.60
2019-03-28T04:14:04.270Z,23.50
2019-03-28T04:16:32.787Z,22.50
2019-03-28T04:36:21.334Z,21.80
2019-03-28T04:41:19.382Z,21.10
2019-03-28T04:46:17.343Z,20.60
2019-03-28T04:51:14.267Z,19.70
2019-03-28T04:53:42.792Z,19.90
2019-03-28T05:03:37.946Z,20.70
2019-03-28T05:06:06.608Z,21.00
2019-03-28T05:13:32.054Z,20.30
2019-03-28T05:16:00.714Z,20.50
2019-03-28T05:20:57.782Z,20.70
2019-03-28T05:23:26.463Z,20.40
2019-03-28T05:28:23.386Z,20.00
2019-03-28T05:30:51.974Z,21.20
2019-03-28T05:38:17.364Z,22.10
2019-03-28T05:48:11.987Z,22.10
2019-03-28T05:53:08.925Z,22.60
2019-03-28T05:55:37.394Z,22.00
2019-03-28T06:05:30.624Z,21.00
2019-03-28T06:07:59.118Z,20.70
2019-03-28T06:15:24.495Z,20.50
2019-03-28T06:17:53.046Z,21.00
2019-03-28T06:22:49.849Z,20.90
2019-03-28T06:27:46.648Z,21.10
2019-03-28T06:35:12.561Z,21.90
2019-03-28T06:50:07.226Z,22.20
2019-03-28T06:57:32.898Z,23.00
2019-03-28T07:00:01.456Z,23.10
2019-03-28T07:09:54.674Z,23.90
2019-03-28T07:19:47.833Z,23.40
2019-03-28T07:22:16.314Z,22.90
2019-03-28T07:32:11.648Z,25.10
2019-03-28T07:34:40.342Z,25.00
2019-03-28T07:37:08.921Z,24.40
2019-03-28T07:39:37.546Z,24.40
2019-03-28T07:42:06.093Z,25.00
2019-03-28T07:44:37.403Z,24.70
2019-03-28T07:47:04.782Z,25.50
2019-03-28T07:49:33.336Z,26.00
2019-03-28T07:52:02.877Z,26.00
2019-03-28T07:54:31.366Z,25.80
2019-03-28T07:56:59.979Z,25.40
2019-03-28T07:59:28.469Z,25.00
2019-03-28T08:01:56.970Z,25.20
2019-03-28T08:04:25.524Z,25.60
2019-03-28T08:06:54.103Z,25.70
2019-03-28T08:09:35.790Z,25.80
2019-03-28T08:11:52.987Z,26.10
2019-03-28T08:14:21.498Z,25.00
2019-03-28T08:16:50.083Z,24.80
2019-03-28T08:19:18.632Z,24.20
2019-03-28T08:21:47.131Z,23.70
2019-03-28T08:24:15.705Z,24.20
2019-03-28T08:26:44.317Z,24.10
2019-03-28T08:29:12.826Z,24.60
2019-03-28T08:31:42.961Z,24.30
2019-03-28T08:34:11.591Z,23.70
2019-03-28T08:36:40.005Z,23.70
2019-03-28T08:39:08.505Z,24.80
2019-03-28T08:41:37.059Z,24.60
2019-03-28T08:44:07.284Z,24.70
2019-03-28T08:46:35.683Z,24.40
2019-03-28T08:49:04.315Z,25.20
2019-03-28T08:51:32.879Z,24.80
2019-03-28T08:54:01.334Z,24.90
2019-03-28T08:56:29.878Z,25.90
2019-03-28T08:58:58.441Z,26.40
2019-03-28T09:01:27.601Z,26.50
2019-03-28T09:03:56.162Z,26.80
2019-03-28T09:06:24.580Z,26.50
2019-03-28T09:08:53.175Z,27.10
2019-03-28T09:11:21.767Z,27.70
2019-03-28T09:13:50.217Z,27.80
2019-03-28T09:16:18.614Z,28.10
2019-03-28T09:18:47.140Z,28.20
2019-03-28T09:21:15.649Z,28.40
2019-03-28T09:23:44.123Z,28.20
2019-03-28T09:26:12.828Z,27.10
2019-03-28T09:28:41.366Z,27.40
2019-03-28T09:31:19.737Z,26.70
2019-03-28T09:33:40.880Z,26.30
2019-03-28T09:36:09.963Z,26.00
2019-03-28T09:38:38.606Z,25.80
2019-03-28T09:41:07.135Z,26.20
2019-03-28T09:43:35.618Z,26.70
2019-03-28T09:46:04.026Z,26.80
2019-03-28T09:48:32.581Z,27.20
2019-03-28T09:51:01.138Z,26.90
2019-03-28T09:53:29.763Z,27.20
2019-03-28T09:55:58.317Z,27.60
2019-03-28T09:58:26.883Z,27.20
2019-03-28T10:01:02.839Z,26.70
2019-03-28T10:03:25.761Z,26.60
2019-03-28T10:05:54.553Z,27.30
2019-03-28T10:08:23.279Z,27.10
2019-03-28T10:10:51.960Z,27.80
2019-03-28T10:13:20.609Z,28.10
2019-03-28T10:15:49.086Z,28.20
2019-03-28T10:18:17.727Z,27.70
2019-03-28T10:20:46.256Z,27.20
2019-03-28T10:23:14.836Z,27.70
2019-03-28T10:25:43.460Z,27.70
2019-03-28T10:28:12.032Z,27.90
2019-03-28T10:30:42.897Z,27.70
2019-03-28T10:33:11.480Z,28.30
2019-03-28T10:35:40.130Z,28.50
2019-03-28T10:38:08.709Z,28.80
2019-03-28T10:40:37.398Z,27.80
2019-03-28T10:43:06.022Z,27.80
2019-03-28T10:45:34.724Z,28.30
2019-03-28T10:48:03.346Z,27.40
2019-03-28T10:50:40.784Z,27.20
2019-03-28T10:53:02.184Z,27.60
2019-03-28T10:55:30.800Z,28.30
2019-03-28T10:58:00.399Z,28.70
2019-03-28T11:00:28.961Z,28.10
2019-03-28T11:02:57.772Z,28.10
2019-03-28T11:05:26.338Z,28.20
2019-03-28T11:07:54.923Z,28.70
2019-03-28T11:10:23.619Z,28.90
2019-03-28T11:12:52.166Z,29.30
2019-03-28T11:15:20.719Z,29.00
2019-03-28T11:17:49.401Z,29.70
2019-03-28T11:20:18.048Z,29.70
2019-03-28T11:22:46.531Z,29.30
2019-03-28T11:25:15.136Z,28.90
2019-03-28T11:27:43.702Z,28.70
2019-03-28T11:30:12.261Z,28.70
2019-03-28T11:32:40.806Z,29.10
2019-03-28T11:35:09.353Z,28.70
2019-03-28T11:37:37.845Z,29.10
2019-03-28T11:40:09.642Z,29.40
2019-03-28T11:42:38.279Z,29.60
2019-03-28T11:45:09.496Z,28.00
2019-03-28T11:47:38.122Z,27.90
2019-03-28T11:50:08.066Z,28.40
2019-03-28T11:52:36.784Z,28.70
2019-03-28T11:55:07.298Z,29.40
2019-03-28T11:57:36.823Z,30.00
2019-03-28T12:00:12.705Z,30.40
2019-03-28T12:02:41.334Z,30.60
2019-03-28T12:05:10.780Z,30.90
2019-03-28T12:07:39.461Z,30.90
2019-03-28T12:10:10.326Z,31.00
2019-03-28T12:12:38.992Z,30.90
2019-03-28T12:15:07.845Z,31.00
2019-03-28T12:17:36.391Z,31.10
2019-03-28T12:20:09.542Z,31.30
2019-03-28T12:22:38.054Z,31.00
2019-03-28T12:25:06.686Z,30.60
2019-03-28T12:27:35.307Z,29.00
2019-03-28T12:30:05.876Z,28.70
2019-03-28T12:32:34.294Z,27.80
2019-03-28T12:35:02.806Z,26.90
2019-03-28T12:37:31.434Z,27.30
2019-03-28T12:40:00.208Z,26.90
2019-03-28T12:42:28.937Z,26.90
2019-03-28T12:44:58.884Z,27.20
2019-03-28T12:47:41.287Z,27.50
2019-03-28T12:49:57.742Z,27.80
2019-03-28T12:52:29.596Z,28.00
2019-03-28T12:54:56.685Z,28.40
2019-03-28T12:57:25.369Z,28.20
2019-03-28T12:59:54.019Z,28.20
2019-03-28T13:02:30.183Z,27.90
2019-03-28T13:04:53.914Z,28.70
2019-03-28T13:07:22.564Z,28.50
2019-03-28T13:09:51.131Z,28.40
2019-03-28T13:12:19.779Z,28.50
2019-03-28T13:14:48.754Z,28.30
2019-03-28T13:17:17.277Z,28.40
2019-03-28T13:19:46.003Z,27.20
2019-03-28T13:22:14.735Z,28.00
2019-03-28T13:24:43.291Z,28.10
2019-03-28T13:27:13.424Z,27.80
2019-03-28T13:29:42.103Z,27.40
2019-03-28T13:32:10.779Z,27.90
2019-03-28T13:34:39.398Z,28.40
2019-03-28T13:37:08.103Z,28.60
2019-03-28T13:39:36.633Z,29.20
2019-03-28T13:42:05.180Z,29.30
2019-03-28T13:44:33.796Z,28.30
2019-03-28T13:47:02.574Z,28.60
2019-03-28T13:49:31.134Z,28.10
2019-03-28T13:51:59.680Z,28.70
2019-03-28T13:54:28.250Z,29.20
2019-03-28T13:56:56.866Z,29.30
2019-03-28T13:59:25.614Z,29.10
2019-03-28T14:01:54.175Z,29.70
2019-03-28T14:04:23.694Z,29.00
2019-03-28T14:06:52.767Z,28.10
2019-03-28T14:09:23.272Z,28.50
2019-03-28T14:11:51.667Z,28.90
2019-03-28T14:14:20.322Z,29.00
2019-03-28T14:16:49.788Z,29.80
2019-03-28T14:19:19.168Z,29.80
2019-03-28T14:21:47.781Z,30.00
2019-03-28T14:24:16.340Z,28.90
2019-03-28T14:26:44.900Z,28.70
2019-03-28T14:29:13.448Z,28.90
2019-03-28T14:31:42.000Z,29.00
2019-03-28T14:34:10.551Z,28.70
2019-03-28T14:36:39.168Z,27.70
2019-03-28T14:39:07.945Z,28.40
2019-03-28T14:41:36.534Z,28.20
2019-03-28T14:44:05.146Z,28.70
2019-03-28T14:46:33.774Z,29.20
2019-03-28T14:49:02.391Z,29.40
2019-03-28T14:51:30.963Z,30.00
2019-03-28T14:53:59.450Z,29.80
2019-03-28T14:56:28.024Z,28.30
2019-03-28T14:58:56.549Z,28.10
2019-03-28T15:01:26.828Z,28.50
2019-03-28T15:03:55.257Z,27.90
2019-03-28T15:06:24.915Z,27.90
2019-03-28T15:08:53.885Z,28.00
2019-03-28T15:11:22.389Z,28.10
2019-03-28T15:13:51.019Z,27.70
2019-03-28T15:16:19.578Z,27.40
2019-03-28T15:18:48.156Z,26.70
2019-03-28T15:21:16.983Z,27.10
2019-03-28T15:23:45.543Z,27.70
2019-03-28T15:26:14.037Z,28.10
2019-03-28T15:28:42.721Z,28.10
2019-03-28T15:31:11.279Z,27.20
2019-03-28T15:33:40.211Z,27.00
2019-03-28T15:36:08.965Z,27.50
2019-03-28T15:51:09.789Z,26.30
2019-03-28T15:53:38.501Z,25.80
2019-03-28T15:56:07.162Z,26.20
2019-03-28T16:01:04.197Z,26.20
2019-03-28T16:06:01.189Z,25.80
2019-03-28T16:08:29.844Z,25.20
2019-03-28T16:10:58.596Z,25.40
2019-03-28T16:13:27.187Z,25.40
2019-03-28T16:15:55.747Z,24.80
2019-03-28T16:18:24.313Z,25.30
2019-03-28T16:20:53.527Z,25.50
2019-03-28T16:23:22.212Z,25.50
2019-03-28T16:28:19.182Z,26.70
2019-03-28T16:30:47.864Z,26.40
2019-03-28T16:33:16.726Z,25.80
2019-03-28T16:35:45.289Z,25.00
2019-03-28T16:38:13.863Z,25.60
2019-03-28T16:40:42.600Z,25.20
2019-03-28T16:43:11.661Z,25.10
2019-03-28T16:45:40.282Z,25.10
2019-03-28T16:48:09.001Z,25.80
2019-03-28T16:50:37.673Z,26.40
2019-03-28T16:53:06.289Z,27.00
2019-03-28T16:55:34.974Z,26.80
2019-03-28T16:58:03.560Z,27.10
2019-03-28T17:00:39.568Z,25.60
2019-03-28T17:03:08.249Z,25.60
2019-03-28T17:05:36.938Z,25.50
2019-03-28T17:08:06.660Z,26.30
2019-03-28T17:10:44.251Z,26.30
2019-03-28T17:13:13.039Z,26.30
2019-03-28T17:15:41.691Z,26.30
2019-03-28T17:18:10.199Z,26.20
2019-03-28T17:20:38.868Z,25.80
2019-03-28T17:23:07.512Z,26.00
2019-03-28T17:25:36.093Z,26.70
2019-03-28T17:28:04.794Z,27.10
2019-03-28T17:30:33.294Z,27.60
2019-03-28T17:33:02.321Z,27.40
2019-03-28T17:35:30.961Z,27.70
2019-03-28T17:37:59.570Z,27.10
2019-03-28T17:40:28.311Z,27.30
2019-03-28T17:42:57.122Z,27.80
2019-03-28T17:45:25.946Z,28.00
2019-03-28T17:47:54.758Z,27.50
2019-03-28T17:50:23.521Z,27.80
2019-03-28T17:52:52.140Z,27.80
2019-03-28T17:55:20.812Z,27.70
2019-03-28T17:57:49.629Z,28.00
2019-03-28T18:00:18.325Z,28.20
2019-03-28T18:02:47.129Z,28.30
2019-03-28T18:05:16.048Z,28.60
2019-03-28T18:07:44.878Z,28.50
2019-03-28T18:10:13.519Z,29.00
2019-03-28T18:12:42.243Z,29.50
2019-03-28T18:15:11.556Z,29.40
2019-03-28T18:17:40.261Z,28.50
2019-03-28T18:20:09.304Z,29.00
2019-03-28T18:22:38.013Z,29.20
2019-03-28T18:25:07.917Z,29.10
2019-03-28T18:27:37.319Z,29.00
2019-03-28T18:30:09.107Z,28.90
2019-03-28T18:32:39.547Z,29.20
2019-03-28T18:35:08.523Z,28.10
2019-03-28T18:42:35.231Z,27.00
2019-03-28T18:47:33.333Z,26.60
2019-03-28T18:50:03.845Z,26.60
2019-03-28T19:04:55.930Z,26.50
2019-03-28T19:07:25.252Z,25.80
2019-03-28T19:09:55.243Z,26.60
2019-03-28T19:22:17.623Z,25.40
2019-03-28T19:24:46.304Z,25.70
2019-03-28T19:27:15.585Z,25.70
2019-03-28T19:44:34.152Z,25.20
2019-03-28T19:47:02.838Z,26.10
2019-03-28T19:49:31.538Z,26.70
2019-03-28T19:52:00.346Z,27.30
2019-03-28T19:54:28.855Z,27.70
2019-03-28T19:56:57.606Z,28.10
2019-03-28T19:59:26.276Z,28.40
2019-03-28T20:01:54.943Z,28.50
2019-03-28T20:04:23.659Z,28.30
2019-03-28T20:06:53.857Z,28.40
2019-03-28T20:09:24.120Z,28.80
2019-03-28T20:11:53.022Z,29.00
2019-03-28T20:14:21.699Z,28.90
2019-03-28T20:16:50.396Z,29.20
2019-03-28T20:19:19.095Z,29.20
2019-03-28T20:21:47.655Z,29.50
2019-03-28T20:24:16.231Z,29.50
2019-03-28T20:26:47.177Z,29.40
2019-03-28T20:29:16.012Z,29.40
2019-03-28T20:31:45.152Z,29.60
2019-03-28T20:34:16.128Z,29.70
2019-03-28T20:36:44.716Z,29.70
2019-03-28T20:39:13.287Z,29.70
2019-03-28T20:41:43.133Z,29.60
2019-03-28T20:44:11.940Z,29.50
2019-03-28T20:46:41.000Z,29.40
2019-03-28T20:49:09.797Z,29.30
2019-03-28T20:51:38.445Z,29.20
2019-03-28T20:54:07.872Z,29.10
2019-03-28T20:56:36.720Z,29.10
2019-03-28T20:59:05.372Z,28.90
2019-03-28T21:01:33.943Z,28.80
2019-03-28T21:04:02.600Z,28.80
2019-03-28T21:06:31.094Z,28.80
2019-03-28T21:08:59.663Z,28.80
2019-03-28T21:11:29.634Z,28.60
2019-03-28T21:13:58.433Z,28.60
2019-03-28T21:16:26.986Z,28.50
2019-03-28T21:18:55.687Z,28.50
2019-03-28T21:21:24.249Z,28.40
2019-03-28T21:23:52.805Z,28.40
2019-03-28T21:26:21.994Z,28.40
2019-03-28T21:28:51.125Z,28.40
2019-03-28T21:31:19.955Z,28.40
2019-03-28T21:33:48.718Z,28.50
2019-03-28T21:36:28.879Z,28.60
2019-03-28T21:38:49.180Z,28.80
2019-03-28T21:41:17.832Z,28.80
2019-03-28T21:43:48.065Z,28.80
2019-03-28T21:46:16.702Z,28.80
2019-03-28T21:48:45.460Z,28.70
2019-03-28T21:51:14.687Z,28.50
2019-03-28T21:53:45.183Z,27.80
2019-03-28T21:56:14.448Z,27.70
2019-03-28T21:58:43.011Z,27.70
2019-03-28T22:01:11.658Z,27.10
2019-03-28T22:03:40.373Z,26.90
2019-03-28T22:06:09.024Z,26.80
2019-03-28T22:08:38.464Z,26.70
2019-03-28T22:11:07.818Z,25.80
2019-03-28T22:13:36.989Z,25.90
2019-03-28T22:16:07.810Z,26.20
2019-03-28T22:18:36.626Z,26.70
2019-03-28T22:21:05.131Z,26.90
2019-03-28T22:23:33.684Z,27.20
2019-03-28T22:26:02.280Z,27.30
2019-03-28T22:28:30.762Z,27.40
2019-03-28T22:30:59.406Z,27.60
2019-03-28T22:33:28.034Z,27.70
2019-03-28T22:35:56.548Z,27.70
2019-03-28T22:38:25.033Z,27.60
2019-03-28T22:40:53.998Z,27.40
2019-03-28T22:43:22.491Z,27.00
2019-03-28T22:45:51.057Z,26.40
2019-03-28T22:48:19.687Z,26.00
2019-03-28T22:50:48.169Z,25.80
2019-03-28T22:53:17.073Z,25.30
2019-03-28T22:55:45.699Z,24.70
2019-03-28T22:58:14.661Z,24.80
2019-03-28T23:00:47.854Z,24.00
2019-03-28T23:03:17.238Z,24.20
2019-03-28T23:05:45.744Z,24.00
2019-03-28T23:08:14.253Z,24.80
2019-03-28T23:10:42.790Z,25.90
2019-03-28T23:13:11.213Z,25.30
2019-03-28T23:15:39.708Z,25.60
2019-03-28T23:18:08.316Z,25.50
2019-03-28T23:20:36.828Z,24.90
2019-03-28T23:23:05.304Z,25.40
2019-03-28T23:25:37.060Z,25.40
2019-03-28T23:28:05.780Z,26.00
2019-03-28T23:30:34.260Z,26.00
2019-03-28T23:33:02.815Z,26.60
2019-03-28T23:35:31.371Z,26.50
2019-03-28T23:37:59.916Z,26.30
2019-03-28T23:40:29.921Z,26.90
2019-03-28T23:42:58.748Z,27.30
2019-03-28T23:45:27.345Z,27.10
2019-03-28T23:47:55.929Z,26.50
2019-03-28T23:50:24.652Z,27.00
2019-03-28T23:52:53.142Z,26.80
2019-03-28T23:55:21.757Z,27.20
2019-03-28T23:57:50.311Z,27.30
